Weather at Long Beach Airport (Daugherty Field)

Public forecast

Using degrees Fahrenheit for public forecast. Weather courtesy of forecast.io.

Current aviation weather report (METAR) for Long Beach Airport (Daugherty Field)

2024/04/24 11:53 (retrieved 28 minutes ago)

KLGB 241153Z AUTO 00000KT 10SM OVC036 16/10 A3005 RMK AO2 SLP174 T01610100 10161 20150 55001

Aviation forecast (TAF) for Long Beach Airport (Daugherty Field)

2024/04/24 12:52 (retrieved 0 seconds ago)

TAF KLGB 241150Z 2412/2512 VRB03KT P6SM OVC035 FM241700 18007KT P6SM BKN040 FM242100 23012KT P6SM SCT040 FM250200 28010KT P6SM BKN035 FM250700 26006KT P6SM OVC035